Capitol Logistics 948


EHAM
Schiphol International Airport
Amsterdam, NL
KIAD
Washington Dulles International Airport
Dulles, US

Activity Log

Date Flight Route Aircraft Duration
09/22/2020 CPX948 EHAM/24 BERG1S BERGI L602 SUPUR L60 PENIL M144 BAGSO DOGAL 5420N 5430N 5340N 5150N ALLRY N358A EBONY J573 ENE Q480 BAF HYPER7 KIAD/I01C B763 8h 50m
04/10/2020 CPX948 BERG1Z BERGI L602 SUPUR L60 PENIL M144 BAGSO DOGAL 5420N 5430N 5340N 5150N ALLRY N358A EBONY J573 ENE Q480 BAF HYPER7 B763 8h 56m
04/05/2020 CPX948 BERG2N BERGI L602 SUPUR L60 PENIL M144 BAGSO DOGAL 5420N 5430N 5340N 5150N ALLRY N358A EBONY J573 ENE Q480 BAF HYPER7 B763 8h 35m
03/24/2020 CPX948 BERG2R BERGI SUPUR KOLAG L60 PENIL M144 BAGSO DOGAL 5520N 5630N 5640N 5550N LOMSI N516A TOPPS ENE Q480 BAF B763 8h 38m
03/03/2020 CPX948 BERG1S BERGI L602 SUPUR L60 PENIL M144 BAGSO DOGAL 5420N 5430N 5340N 5150N ALLRY N358A EBONY J573 ENE Q480 BAF HYPER7 B763 9h 07m
01/16/2020 CPX948 BERG3E BERGI L602 SUPUR L60 PENIL M144 BAGSO DOGAL/M079F320 5420N 5430N 5340N 5150N ALLRY/N0453F320 N358A EBONY/N0451F340 J573 SEAER/N0453F360 J573 ENE Q480 BAF HYPER7 B763 9h 01m
12/09/2019 CPX948 BERG1S BERGI L602 SUPUR L60 PENIL M144 BAGSO DOGAL 5520N 5630N 5640N 5450N NEEKO N480A TAFFY PQI J55 ENE Q480 BAF HYPER7 B763 9h 21m
06/21/2019 CPX948 EHAM BERG3E BERGI MIMVA NALAX L46 REMSI NIBOG PIKIL 57N020W 58N030W 57N040W 55N050W LOMSI TOPPS ENE Q480 BAF HYPER7 KIAD B763 9h 27m
05/28/2019 CPX948 BERGI UL602 MIMVA L602 NALAX L46 ODNEK N110 ERKIT L602 GOW GOMUP NATD HOIST N596A TAFFY ENE BAF HYPER7 B763 8h 51m
05/09/2019 CPX948 BERGI UL602 MIMVA L602 NALAX L46 ODNEK N110 ERKIT L602 GOW GOMUP NATD HOIST N596A TAFFY ENE BAF HYPER7 B763 8h 26m

Route Details

Aircraft Information
Primary: Boeing 767-300BDSF
Backup: Not Available
Route Data
Distance: 3355nm
Sched. Duration: 8h 34m
Avg. Duration: 8h 71m (+37m)
Times Flown: 10
Recm'd Route: BERGI UL602 MIMVA L602 NALAX L46 ODNEK N110 ERKIT L602 GOW GOMUP NATD HOIST N596A TAFFY ENE BAF HYPER7
Planned Altitude: 32,000ft
Origin Wx: EHAM 250525Z 20013KT 9999 -RA FEW010 11/10 Q0999 NOSIG
Dest. Wx: KIAD 250452Z 36009KT 10SM OVC065 13/06 A3010 RMK AO2 SLP192 T01280056 402390128
Notes: SEASONAL FLIGHT | PERISHABLE CARGO

Financial History
Total Freight: 981,804lbs
Average Load: 98,180lbs/flt
Fuel Used: 1,029,770lbs
Avg. Fuel Used: 102,977lbs/flt
Fuel Expense: $823,816
Avg. Fuel Expense: $82,382
Avg. Fuel Cost: $0.80/lbs
Total Gross Income: $5,551,830
Pilot Pay: $2,470
Total Expenses: $600,118
Total Revenue: $4,104,409
Average Revenue: $555,182.96